Terminal Aerodrome Forecast
Issued by NWS

Home | Current Version | Previous Version | Text Only | Print | Product List | Glossary On
Versions: 1 2 3 4 5 6 7 8 9 10 11 12 13 14 15 16
000
FTAK31 PANC 221149
TAFADL
TAF
PADL 221149Z 2212/2312 18006KT 5SM -SN BR OVC006
      TEMPO 2212/2216 2SM -SN BR OVC012
     FM230600 18012G18KT P6SM OVC008=

USA.gov is the U.S. government's official web portal to all federal, state and local government web resources and services.